Evanston Uinta County Burns Field
KEVW : now visible

Airfield :











YOU CAN JOIN US ON...

 
LOGIN :

Register | Disclaimer

   EN    FR    IT 

 









Legend :    VFR   Marginal VFR   IFR   Intensive IFR   Very Intensive IFR
Visi :
Ceiling :
>= 8 km
>= 3000ft
5 to 8 km
1000 to 3000 ft
1500m to 5 km
500 to 1000 ft
800 to 1500m
200 to 500 ft
< 800m
< 200 ft
Symbols :   Thunderstorms  Fog  Heavy snow  Heavy precipitations  Wind > 20 kt






- Airport Elevation : 7143 ft


KEVW - Evanston Uinta County Burns Field

CURRENT METAR :
  • 150401Z AUTO 08012G23KT 10SM FEW013 OVC033 M04/M07 A2994 RMK AO2 T10391072 $

EXPIRED METARs :
  • 150253Z AUTO 07019G27KT 10SM FEW043 M03/M07 A2988 RMK AO2 PK WND 07027/0250 SNB03E21 SLP142 P0000 60000 T10331067 58001
  • 150231Z AUTO 07019G25KT 10SM SCT008 OVC043 M03/M06 A2989 RMK AO2 SNB03E21 P0000 T10331061
  • 150153Z AUTO 08019G22KT 10SM OVC007 M03/M05 A2990 RMK AO2 SLP147 T10281050

TAF KEVW
Valid from the 15 at 00:00 until the 16 at 00:00 UTC


142329Z 1500/1524 07015G22KT P6SM SCT009 OVC030
TEMPO 1500/1503 2SM -SN BR BKN006 OVC010
FM150300 08010KT P6SM VCSH BKN025 OVC040
KZLC FIR / North America



MET'MAP, your aeronautical weather chart ! - Copyright ORBIFLY December 2007 - Disclaimer

ORBIFLY MET'MAP TEAM :

Programming & Development : Alexandra Zaïnal
Concept & original design : Baudouin d'Aumeries
Assistance for programming : Marc-Olivier Méhu
Technical & hardware support : Manuel Goepfert

Contact : metmap@orbifly.com




SOURCES & CREDITS :

   NOAA       Earth
Advisory